sensor_id;sensor_type;location;lat;lon;timestamp;P1;durP1;ratioP1;P2;durP2;ratioP2
75504;SDS011;64085;54.974;73.410;2023-05-03T07:35:05;13.65;;;7.10;;
75504;SDS011;64085;54.974;73.410;2023-05-03T07:37:31;7.63;;;6.38;;
75504;SDS011;64085;54.974;73.410;2023-05-03T07:40:16;9.00;;;6.47;;
75504;SDS011;64085;54.974;73.410;2023-05-03T07:42:41;8.10;;;6.45;;
75504;SDS011;64085;54.974;73.410;2023-05-03T07:45:25;8.82;;;6.03;;
75504;SDS011;64085;54.974;73.410;2023-05-03T07:47:51;8.07;;;6.03;;
75504;SDS011;64085;54.974;73.410;2023-05-03T07:50:35;10.70;;;6.70;;
75504;SDS011;64085;54.974;73.410;2023-05-03T07:53:01;7.70;;;6.05;;
75504;SDS011;64085;54.974;73.410;2023-05-03T07:55:27;11.27;;;6.63;;
75504;SDS011;64085;54.974;73.410;2023-05-03T07:57:54;12.52;;;6.55;;
75504;SDS011;64085;54.974;73.410;2023-05-03T08:03:07;8.32;;;5.95;;
75504;SDS011;64085;54.974;73.410;2023-05-03T08:05:51;9.27;;;6.50;;
75504;SDS011;64085;54.974;73.410;2023-05-03T08:08:36;9.68;;;6.10;;
75504;SDS011;64085;54.974;73.410;2023-05-03T08:11:02;11.10;;;6.40;;
75504;SDS011;64085;54.974;73.410;2023-05-03T08:13:28;8.32;;;6.40;;
75504;SDS011;64085;54.974;73.410;2023-05-03T08:15:53;8.90;;;6.60;;
75504;SDS011;64085;54.974;73.410;2023-05-03T08:18:29;9.27;;;6.22;;
75504;SDS011;64085;54.974;73.410;2023-05-03T08:23:39;11.10;;;6.28;;
75504;SDS011;64085;54.974;73.410;2023-05-03T08:26:04;9.07;;;6.75;;
75504;SDS011;64085;54.974;73.410;2023-05-03T08:28:31;7.38;;;5.05;;
75504;SDS011;64085;54.974;73.410;2023-05-03T08:30:58;10.52;;;6.25;;
75504;SDS011;64085;54.974;73.410;2023-05-03T08:33:23;10.57;;;6.72;;
75504;SDS011;64085;54.974;73.410;2023-05-03T08:35:49;8.55;;;5.38;;
75504;SDS011;64085;54.974;73.410;2023-05-03T08:41:02;9.52;;;6.50;;
75504;SDS011;64085;54.974;73.410;2023-05-03T08:43:41;9.00;;;6.32;;
75504;SDS011;64085;54.974;73.410;2023-05-03T08:46:27;10.15;;;5.20;;
75504;SDS011;64085;54.974;73.410;2023-05-03T08:48:53;8.35;;;6.13;;
75504;SDS011;64085;54.974;73.410;2023-05-03T08:51:22;8.00;;;5.25;;
75504;SDS011;64085;54.974;73.410;2023-05-03T08:53:49;8.88;;;5.97;;
75504;SDS011;64085;54.974;73.410;2023-05-03T08:56:19;7.35;;;6.07;;
75504;SDS011;64085;54.974;73.410;2023-05-03T09:01:41;6.65;;;5.35;;
75504;SDS011;64085;54.974;73.410;2023-05-03T09:04:44;7.47;;;5.45;;
75504;SDS011;64085;54.974;73.410;2023-05-03T09:07:28;8.73;;;5.95;;
75504;SDS011;64085;54.974;73.410;2023-05-03T09:09:53;7.82;;;5.65;;
75504;SDS011;64085;54.974;73.410;2023-05-03T09:14:59;10.70;;;6.93;;
75504;SDS011;64085;54.974;73.410;2023-05-03T09:22:15;8.65;;;5.88;;
75504;SDS011;64085;54.974;73.410;2023-05-03T09:24:47;9.75;;;7.15;;
75504;SDS011;64085;54.974;73.410;2023-05-03T09:27:59;12.18;;;8.25;;
75504;SDS011;64085;54.974;73.410;2023-05-03T09:30:25;10.52;;;8.52;;
75504;SDS011;64085;54.974;73.410;2023-05-03T09:35:55;12.93;;;9.93;;
75504;SDS011;64085;54.974;73.410;2023-05-03T09:41:06;14.63;;;11.80;;
75504;SDS011;64085;54.974;73.410;2023-05-03T09:43:32;14.70;;;8.70;;
75504;SDS011;64085;54.974;73.410;2023-05-03T09:46:07;15.43;;;9.75;;
75504;SDS011;64085;54.974;73.410;2023-05-03T09:48:34;14.13;;;10.48;;
75504;SDS011;64085;54.974;73.410;2023-05-03T09:51:04;16.95;;;11.80;;
75504;SDS011;64085;54.974;73.410;2023-05-03T09:53:48;12.80;;;10.55;;
75504;SDS011;64085;54.974;73.410;2023-05-03T09:58:59;14.20;;;10.23;;
75504;SDS011;64085;54.974;73.410;2023-05-03T10:01:25;14.32;;;9.52;;
75504;SDS011;64085;54.974;73.410;2023-05-03T10:03:51;14.13;;;9.77;;
75504;SDS011;64085;54.974;73.410;2023-05-03T10:11:49;17.30;;;11.20;;
75504;SDS011;64085;54.974;73.410;2023-05-03T10:14:17;17.50;;;11.85;;
75504;SDS011;64085;54.974;73.410;2023-05-03T10:16:46;16.27;;;11.85;;
75504;SDS011;64085;54.974;73.410;2023-05-03T10:22:05;15.80;;;12.05;;
75504;SDS011;64085;54.974;73.410;2023-05-03T10:24:33;15.35;;;13.38;;
75504;SDS011;64085;54.974;73.410;2023-05-03T10:27:01;16.13;;;12.25;;
75504;SDS011;64085;54.974;73.410;2023-05-03T10:34:59;18.13;;;11.65;;
75504;SDS011;64085;54.974;73.410;2023-05-03T10:40:10;12.40;;;9.27;;
75504;SDS011;64085;54.974;73.410;2023-05-03T10:42:55;13.02;;;9.27;;
75504;SDS011;64085;54.974;73.410;2023-05-03T10:50:34;14.27;;;7.28;;
75504;SDS011;64085;54.974;73.410;2023-05-03T10:53:00;10.35;;;8.20;;
75504;SDS011;64085;54.974;73.410;2023-05-03T10:56:02;11.95;;;8.55;;
75504;SDS011;64085;54.974;73.410;2023-05-03T11:01:20;11.85;;;8.50;;
75504;SDS011;64085;54.974;73.410;2023-05-03T11:09:28;13.68;;;8.23;;
75504;SDS011;64085;54.974;73.410;2023-05-03T11:11:56;12.63;;;7.72;;
75504;SDS011;64085;54.974;73.410;2023-05-03T11:17:25;10.63;;;7.40;;
75504;SDS011;64085;54.974;73.410;2023-05-03T11:19:53;10.55;;;7.40;;
75504;SDS011;64085;54.974;73.410;2023-05-03T11:22:37;12.75;;;7.90;;
75504;SDS011;64085;54.974;73.410;2023-05-03T11:25:02;21.40;;;9.13;;
75504;SDS011;64085;54.974;73.410;2023-05-03T11:30:12;14.13;;;6.65;;
75504;SDS011;64085;54.974;73.410;2023-05-03T11:32:39;11.27;;;6.78;;
75504;SDS011;64085;54.974;73.410;2023-05-03T11:35:07;6.40;;;5.35;;
75504;SDS011;64085;54.974;73.410;2023-05-03T11:37:33;8.48;;;5.95;;
75504;SDS011;64085;54.974;73.410;2023-05-03T11:39:59;8.68;;;6.28;;
75504;SDS011;64085;54.974;73.410;2023-05-03T11:42:25;7.93;;;5.93;;
75504;SDS011;64085;54.974;73.410;2023-05-03T11:47:36;9.00;;;5.13;;
75504;SDS011;64085;54.974;73.410;2023-05-03T11:50:03;8.57;;;5.93;;
75504;SDS011;64085;54.974;73.410;2023-05-03T11:52:28;10.35;;;4.90;;
75504;SDS011;64085;54.974;73.410;2023-05-03T11:57:41;8.38;;;5.47;;
75504;SDS011;64085;54.974;73.410;2023-05-03T12:00:12;6.95;;;4.63;;
75504;SDS011;64085;54.974;73.410;2023-05-03T12:02:41;6.85;;;4.57;;
75504;SDS011;64085;54.974;73.410;2023-05-03T12:05:07;6.65;;;4.82;;
75504;SDS011;64085;54.974;73.410;2023-05-03T12:07:33;4.82;;;4.32;;
75504;SDS011;64085;54.974;73.410;2023-05-03T12:10:12;8.95;;;4.50;;
75504;SDS011;64085;54.974;73.410;2023-05-03T12:12:39;7.07;;;4.88;;
75504;SDS011;64085;54.974;73.410;2023-05-03T12:15:15;5.45;;;4.35;;
75504;SDS011;64085;54.974;73.410;2023-05-03T12:17:57;5.75;;;4.10;;
75504;SDS011;64085;54.974;73.410;2023-05-03T12:20:25;5.90;;;4.20;;
75504;SDS011;64085;54.974;73.410;2023-05-03T12:22:55;6.95;;;4.22;;
75504;SDS011;64085;54.974;73.410;2023-05-03T12:25:22;8.55;;;4.40;;
75504;SDS011;64085;54.974;73.410;2023-05-03T12:27:50;6.82;;;4.43;;
75504;SDS011;64085;54.974;73.410;2023-05-03T12:30:16;9.73;;;4.57;;
75504;SDS011;64085;54.974;73.410;2023-05-03T12:32:42;8.85;;;4.40;;
75504;SDS011;64085;54.974;73.410;2023-05-03T12:38:11;7.68;;;4.63;;
75504;SDS011;64085;54.974;73.410;2023-05-03T12:40:55;6.38;;;4.15;;
75504;SDS011;64085;54.974;73.410;2023-05-03T12:43:21;10.48;;;4.63;;
75504;SDS011;64085;54.974;73.410;2023-05-03T12:45:47;8.52;;;4.57;;
75504;SDS011;64085;54.974;73.410;2023-05-03T12:48:13;4.60;;;3.75;;
75504;SDS011;64085;54.974;73.410;2023-05-03T12:50:38;6.32;;;3.83;;
75504;SDS011;64085;54.974;73.410;2023-05-03T12:53:04;6.85;;;3.95;;
75504;SDS011;64085;54.974;73.410;2023-05-03T12:55:48;7.82;;;4.50;;
75504;SDS011;64085;54.974;73.410;2023-05-03T12:58:13;6.70;;;4.40;;
75504;SDS011;64085;54.974;73.410;2023-05-03T13:00:39;8.10;;;4.25;;
75504;SDS011;64085;54.974;73.410;2023-05-03T13:03:05;14.10;;;5.13;;
75504;SDS011;64085;54.974;73.410;2023-05-03T13:08:33;6.57;;;5.25;;
75504;SDS011;64085;54.974;73.410;2023-05-03T13:11:17;9.98;;;5.15;;
75504;SDS011;64085;54.974;73.410;2023-05-03T13:13:44;11.23;;;6.28;;
75504;SDS011;64085;54.974;73.410;2023-05-03T13:16:10;8.07;;;4.35;;
75504;SDS011;64085;54.974;73.410;2023-05-03T13:18:54;9.13;;;5.93;;
75504;SDS011;64085;54.974;73.410;2023-05-03T13:21:20;13.35;;;8.43;;
75504;SDS011;64085;54.974;73.410;2023-05-03T13:23:46;6.07;;;4.63;;
75504;SDS011;64085;54.974;73.410;2023-05-03T13:26:12;11.00;;;5.57;;
75504;SDS011;64085;54.974;73.410;2023-05-03T13:28:38;7.72;;;5.82;;
75504;SDS011;64085;54.974;73.410;2023-05-03T13:31:06;9.70;;;5.18;;
75504;SDS011;64085;54.974;73.410;2023-05-03T13:33:32;28.38;;;12.35;;
75504;SDS011;64085;54.974;73.410;2023-05-03T13:36:02;12.30;;;7.72;;
75504;SDS011;64085;54.974;73.410;2023-05-03T13:38:28;15.50;;;8.20;;
75504;SDS011;64085;54.974;73.410;2023-05-03T13:40:54;10.52;;;6.20;;
75504;SDS011;64085;54.974;73.410;2023-05-03T13:46:06;8.90;;;5.03;;
75504;SDS011;64085;54.974;73.410;2023-05-03T13:48:31;8.07;;;4.03;;
75504;SDS011;64085;54.974;73.410;2023-05-03T13:51:16;7.80;;;4.55;;
75504;SDS011;64085;54.974;73.410;2023-05-03T13:53:41;8.85;;;5.13;;
75504;SDS011;64085;54.974;73.410;2023-05-03T13:56:07;9.35;;;4.55;;
75504;SDS011;64085;54.974;73.410;2023-05-03T14:01:35;9.45;;;4.43;;
75504;SDS011;64085;54.974;73.410;2023-05-03T14:04:02;7.13;;;4.03;;
75504;SDS011;64085;54.974;73.410;2023-05-03T14:06:29;8.18;;;4.78;;
75504;SDS011;64085;54.974;73.410;2023-05-03T14:08:55;10.48;;;5.25;;
75504;SDS011;64085;54.974;73.410;2023-05-03T14:11:40;12.25;;;5.25;;
75504;SDS011;64085;54.974;73.410;2023-05-03T14:14:05;7.55;;;3.35;;
75504;SDS011;64085;54.974;73.410;2023-05-03T14:16:31;9.85;;;5.63;;
75504;SDS011;64085;54.974;73.410;2023-05-03T14:18:57;17.40;;;4.75;;
75504;SDS011;64085;54.974;73.410;2023-05-03T14:21:23;10.30;;;4.40;;
75504;SDS011;64085;54.974;73.410;2023-05-03T14:23:49;6.55;;;3.78;;
75504;SDS011;64085;54.974;73.410;2023-05-03T14:26:15;5.93;;;4.18;;
75504;SDS011;64085;54.974;73.410;2023-05-03T14:28:41;12.23;;;5.47;;
75504;SDS011;64085;54.974;73.410;2023-05-03T14:31:26;7.88;;;4.45;;
75504;SDS011;64085;54.974;73.410;2023-05-03T14:33:51;13.77;;;3.92;;
75504;SDS011;64085;54.974;73.410;2023-05-03T14:36:17;15.15;;;6.00;;
75504;SDS011;64085;54.974;73.410;2023-05-03T14:39:01;10.95;;;5.35;;
75504;SDS011;64085;54.974;73.410;2023-05-03T14:41:28;9.30;;;4.15;;
75504;SDS011;64085;54.974;73.410;2023-05-03T14:43:54;9.77;;;4.50;;
75504;SDS011;64085;54.974;73.410;2023-05-03T14:46:20;7.90;;;4.40;;
75504;SDS011;64085;54.974;73.410;2023-05-03T14:48:46;10.85;;;4.13;;
75504;SDS011;64085;54.974;73.410;2023-05-03T14:51:11;13.20;;;5.07;;
75504;SDS011;64085;54.974;73.410;2023-05-03T14:53:39;13.15;;;5.63;;
75504;SDS011;64085;54.974;73.410;2023-05-03T14:56:04;14.68;;;4.82;;
75504;SDS011;64085;54.974;73.410;2023-05-03T14:58:30;5.88;;;3.58;;
75504;SDS011;64085;54.974;73.410;2023-05-03T15:00:57;8.10;;;4.45;;
75504;SDS011;64085;54.974;73.410;2023-05-03T15:03:22;9.68;;;4.90;;
75504;SDS011;64085;54.974;73.410;2023-05-03T15:05:48;14.60;;;6.00;;
75504;SDS011;64085;54.974;73.410;2023-05-03T15:10:59;7.53;;;3.97;;
75504;SDS011;64085;54.974;73.410;2023-05-03T15:13:25;8.98;;;4.40;;
75504;SDS011;64085;54.974;73.410;2023-05-03T15:16:08;14.43;;;5.90;;
75504;SDS011;64085;54.974;73.410;2023-05-03T15:18:34;16.40;;;6.25;;
75504;SDS011;64085;54.974;73.410;2023-05-03T15:21:00;12.15;;;6.55;;
75504;SDS011;64085;54.974;73.410;2023-05-03T15:23:27;11.98;;;6.25;;
75504;SDS011;64085;54.974;73.410;2023-05-03T15:25:53;17.73;;;8.85;;
75504;SDS011;64085;54.974;73.410;2023-05-03T15:28:19;15.13;;;7.88;;
75504;SDS011;64085;54.974;73.410;2023-05-03T15:30:45;16.67;;;7.93;;
75504;SDS011;64085;54.974;73.410;2023-05-03T15:33:11;22.83;;;8.90;;
75504;SDS011;64085;54.974;73.410;2023-05-03T15:35:40;18.15;;;10.65;;
75504;SDS011;64085;54.974;73.410;2023-05-03T15:38:06;16.67;;;11.27;;
75504;SDS011;64085;54.974;73.410;2023-05-03T15:40:32;21.30;;;11.20;;
75504;SDS011;64085;54.974;73.410;2023-05-03T15:42:58;24.48;;;10.77;;
75504;SDS011;64085;54.974;73.410;2023-05-03T15:45:23;21.10;;;9.93;;
75504;SDS011;64085;54.974;73.410;2023-05-03T15:47:53;14.32;;;7.38;;
75504;SDS011;64085;54.974;73.410;2023-05-03T15:53:04;20.50;;;11.93;;
75504;SDS011;64085;54.974;73.410;2023-05-03T15:55:30;22.00;;;10.18;;
75504;SDS011;64085;54.974;73.410;2023-05-03T15:57:55;20.35;;;9.40;;
75504;SDS011;64085;54.974;73.410;2023-05-03T16:03:06;12.43;;;7.72;;
75504;SDS011;64085;54.974;73.410;2023-05-03T16:05:32;16.60;;;8.60;;
75504;SDS011;64085;54.974;73.410;2023-05-03T16:07:59;14.85;;;8.65;;
75504;SDS011;64085;54.974;73.410;2023-05-03T16:10:44;21.17;;;8.20;;
75504;SDS011;64085;54.974;73.410;2023-05-03T16:13:10;14.50;;;7.22;;
75504;SDS011;64085;54.974;73.410;2023-05-03T16:15:36;14.43;;;7.53;;
75504;SDS011;64085;54.974;73.410;2023-05-03T16:18:02;13.95;;;8.45;;
75504;SDS011;64085;54.974;73.410;2023-05-03T16:20:47;9.38;;;5.97;;
75504;SDS011;64085;54.974;73.410;2023-05-03T16:23:14;12.23;;;6.43;;
75504;SDS011;64085;54.974;73.410;2023-05-03T16:25:40;12.82;;;8.10;;
75504;SDS011;64085;54.974;73.410;2023-05-03T16:28:05;13.75;;;6.15;;
75504;SDS011;64085;54.974;73.410;2023-05-03T16:30:50;13.93;;;7.13;;
75504;SDS011;64085;54.974;73.410;2023-05-03T16:33:15;9.00;;;5.80;;
75504;SDS011;64085;54.974;73.410;2023-05-03T16:36:00;15.40;;;8.43;;
75504;SDS011;64085;54.974;73.410;2023-05-03T16:38:25;7.18;;;5.20;;
75504;SDS011;64085;54.974;73.410;2023-05-03T16:43:38;8.85;;;5.68;;
75504;SDS011;64085;54.974;73.410;2023-05-03T16:46:04;15.82;;;6.32;;
75504;SDS011;64085;54.974;73.410;2023-05-03T16:48:30;10.18;;;5.55;;
75504;SDS011;64085;54.974;73.410;2023-05-03T16:50:56;10.18;;;6.15;;
75504;SDS011;64085;54.974;73.410;2023-05-03T16:53:22;7.35;;;4.88;;
75504;SDS011;64085;54.974;73.410;2023-05-03T16:56:06;9.98;;;5.25;;
75504;SDS011;64085;54.974;73.410;2023-05-03T16:58:32;5.25;;;4.47;;
75504;SDS011;64085;54.974;73.410;2023-05-03T17:00:58;9.23;;;4.32;;
75504;SDS011;64085;54.974;73.410;2023-05-03T17:03:23;6.40;;;4.03;;
75504;SDS011;64085;54.974;73.410;2023-05-03T17:05:49;7.25;;;3.88;;
75504;SDS011;64085;54.974;73.410;2023-05-03T17:08:15;10.60;;;5.03;;
75504;SDS011;64085;54.974;73.410;2023-05-03T17:10:40;10.07;;;4.78;;
75504;SDS011;64085;54.974;73.410;2023-05-03T17:13:06;7.53;;;4.78;;
75504;SDS011;64085;54.974;73.410;2023-05-03T17:15:33;6.55;;;4.10;;
75504;SDS011;64085;54.974;73.410;2023-05-03T17:17:59;16.00;;;4.43;;
75504;SDS011;64085;54.974;73.410;2023-05-03T17:20:24;9.25;;;4.68;;
75504;SDS011;64085;54.974;73.410;2023-05-03T17:22:50;5.28;;;3.95;;
75504;SDS011;64085;54.974;73.410;2023-05-03T17:25:34;8.02;;;4.65;;
75504;SDS011;64085;54.974;73.410;2023-05-03T17:28:00;6.45;;;4.15;;
75504;SDS011;64085;54.974;73.410;2023-05-03T17:30:26;9.75;;;4.85;;
75504;SDS011;64085;54.974;73.410;2023-05-03T17:32:52;6.47;;;3.97;;
75504;SDS011;64085;54.974;73.410;2023-05-03T17:35:18;6.78;;;4.13;;
75504;SDS011;64085;54.974;73.410;2023-05-03T17:37:43;9.55;;;3.85;;
75504;SDS011;64085;54.974;73.410;2023-05-03T17:40:09;9.00;;;3.85;;
75504;SDS011;64085;54.974;73.410;2023-05-03T17:42:35;4.57;;;3.33;;
75504;SDS011;64085;54.974;73.410;2023-05-03T17:45:01;12.93;;;4.82;;
75504;SDS011;64085;54.974;73.410;2023-05-03T17:47:46;8.38;;;3.92;;
75504;SDS011;64085;54.974;73.410;2023-05-03T17:50:12;6.97;;;4.35;;
75504;SDS011;64085;54.974;73.410;2023-05-03T17:52:55;7.95;;;3.92;;
75504;SDS011;64085;54.974;73.410;2023-05-03T17:58:06;10.23;;;4.05;;
75504;SDS011;64085;54.974;73.410;2023-05-03T18:00:33;8.23;;;3.90;;
75504;SDS011;64085;54.974;73.410;2023-05-03T18:06:02;8.65;;;3.83;;
75504;SDS011;64085;54.974;73.410;2023-05-03T18:08:46;7.50;;;4.35;;
75504;SDS011;64085;54.974;73.410;2023-05-03T18:11:31;18.88;;;3.90;;
75504;SDS011;64085;54.974;73.410;2023-05-03T18:14:15;6.55;;;4.57;;
75504;SDS011;64085;54.974;73.410;2023-05-03T18:16:41;6.50;;;3.80;;
75504;SDS011;64085;54.974;73.410;2023-05-03T18:19:06;8.05;;;4.05;;
75504;SDS011;64085;54.974;73.410;2023-05-03T18:21:32;6.85;;;3.63;;
75504;SDS011;64085;54.974;73.410;2023-05-03T18:23:59;6.65;;;4.30;;
75504;SDS011;64085;54.974;73.410;2023-05-03T18:26:25;6.85;;;4.65;;
75504;SDS011;64085;54.974;73.410;2023-05-03T18:28:50;11.73;;;5.63;;
75504;SDS011;64085;54.974;73.410;2023-05-03T18:31:16;10.50;;;4.90;;
75504;SDS011;64085;54.974;73.410;2023-05-03T18:33:42;14.77;;;5.82;;
75504;SDS011;64085;54.974;73.410;2023-05-03T18:36:08;11.57;;;6.05;;
75504;SDS011;64085;54.974;73.410;2023-05-03T18:38:36;9.60;;;5.28;;
75504;SDS011;64085;54.974;73.410;2023-05-03T18:41:06;10.18;;;6.45;;
75504;SDS011;64085;54.974;73.410;2023-05-03T18:46:21;5.35;;;3.88;;
75504;SDS011;64085;54.974;73.410;2023-05-03T18:48:46;11.63;;;4.93;;
75504;SDS011;64085;54.974;73.410;2023-05-03T18:51:12;5.53;;;4.60;;
75504;SDS011;64085;54.974;73.410;2023-05-03T18:53:38;7.10;;;5.38;;
75504;SDS011;64085;54.974;73.410;2023-05-03T18:56:04;8.18;;;5.43;;
75504;SDS011;64085;54.974;73.410;2023-05-03T18:58:30;8.70;;;5.72;;
75504;SDS011;64085;54.974;73.410;2023-05-03T19:01:14;11.15;;;5.85;;
75504;SDS011;64085;54.974;73.410;2023-05-03T19:03:39;9.73;;;5.95;;
75504;SDS011;64085;54.974;73.410;2023-05-03T19:06:24;11.32;;;6.70;;
75504;SDS011;64085;54.974;73.410;2023-05-03T19:08:49;13.60;;;5.88;;
75504;SDS011;64085;54.974;73.410;2023-05-03T19:11:15;7.13;;;4.95;;
75504;SDS011;64085;54.974;73.410;2023-05-03T19:13:41;9.50;;;6.45;;
75504;SDS011;64085;54.974;73.410;2023-05-03T19:16:09;8.77;;;6.28;;
75504;SDS011;64085;54.974;73.410;2023-05-03T19:18:39;13.73;;;6.15;;
75504;SDS011;64085;54.974;73.410;2023-05-03T19:21:08;10.38;;;6.60;;
75504;SDS011;64085;54.974;73.410;2023-05-03T19:23:53;11.75;;;6.50;;
75504;SDS011;64085;54.974;73.410;2023-05-03T19:26:18;8.65;;;6.07;;
75504;SDS011;64085;54.974;73.410;2023-05-03T19:28:44;8.10;;;6.40;;
75504;SDS011;64085;54.974;73.410;2023-05-03T19:31:11;10.57;;;6.53;;
75504;SDS011;64085;54.974;73.410;2023-05-03T19:33:37;8.50;;;6.30;;
75504;SDS011;64085;54.974;73.410;2023-05-03T19:36:21;13.07;;;6.03;;
75504;SDS011;64085;54.974;73.410;2023-05-03T19:38:47;9.15;;;5.75;;
75504;SDS011;64085;54.974;73.410;2023-05-03T19:41:12;10.55;;;6.07;;
75504;SDS011;64085;54.974;73.410;2023-05-03T19:43:38;11.48;;;6.30;;
75504;SDS011;64085;54.974;73.410;2023-05-03T19:48:49;9.00;;;6.00;;
75504;SDS011;64085;54.974;73.410;2023-05-03T19:51:15;8.55;;;5.80;;
75504;SDS011;64085;54.974;73.410;2023-05-03T19:53:41;10.13;;;6.75;;
75504;SDS011;64085;54.974;73.410;2023-05-03T19:56:25;10.35;;;6.47;;
75504;SDS011;64085;54.974;73.410;2023-05-03T19:58:51;13.45;;;6.95;;
75504;SDS011;64085;54.974;73.410;2023-05-03T20:01:17;10.93;;;7.95;;
75504;SDS011;64085;54.974;73.410;2023-05-03T20:04:01;12.55;;;7.05;;
75504;SDS011;64085;54.974;73.410;2023-05-03T20:06:26;10.77;;;8.23;;
75504;SDS011;64085;54.974;73.410;2023-05-03T20:08:52;13.82;;;9.50;;
75504;SDS011;64085;54.974;73.410;2023-05-03T20:11:18;12.00;;;8.57;;
75504;SDS011;64085;54.974;73.410;2023-05-03T20:14:02;13.98;;;9.63;;
75504;SDS011;64085;54.974;73.410;2023-05-03T20:16:28;13.95;;;8.88;;
75504;SDS011;64085;54.974;73.410;2023-05-03T20:19:11;14.05;;;9.63;;
75504;SDS011;64085;54.974;73.410;2023-05-03T20:21:37;16.15;;;10.18;;
75504;SDS011;64085;54.974;73.410;2023-05-03T20:27:06;13.05;;;8.90;;
75504;SDS011;64085;54.974;73.410;2023-05-03T20:29:31;15.02;;;9.25;;
75504;SDS011;64085;54.974;73.410;2023-05-03T20:31:57;9.40;;;7.13;;
75504;SDS011;64085;54.974;73.410;2023-05-03T20:34:23;14.77;;;7.88;;
75504;SDS011;64085;54.974;73.410;2023-05-03T20:37:07;11.70;;;7.32;;
75504;SDS011;64085;54.974;73.410;2023-05-03T20:39:32;13.65;;;8.45;;
75504;SDS011;64085;54.974;73.410;2023-05-03T20:44:43;13.68;;;7.20;;
75504;SDS011;64085;54.974;73.410;2023-05-03T20:47:09;11.32;;;8.07;;
75504;SDS011;64085;54.974;73.410;2023-05-03T20:49:36;14.90;;;8.45;;
75504;SDS011;64085;54.974;73.410;2023-05-03T20:52:04;9.35;;;6.95;;
75504;SDS011;64085;54.974;73.410;2023-05-03T20:54:29;11.90;;;7.90;;
75504;SDS011;64085;54.974;73.410;2023-05-03T20:56:55;13.63;;;7.32;;
75504;SDS011;64085;54.974;73.410;2023-05-03T20:59:22;12.70;;;8.05;;
75504;SDS011;64085;54.974;73.410;2023-05-03T21:01:47;11.75;;;7.20;;
75504;SDS011;64085;54.974;73.410;2023-05-03T21:04:13;11.77;;;7.28;;
75504;SDS011;64085;54.974;73.410;2023-05-03T21:09:23;15.73;;;8.23;;
75504;SDS011;64085;54.974;73.410;2023-05-03T21:11:48;12.10;;;6.97;;
75504;SDS011;64085;54.974;73.410;2023-05-03T21:14:14;9.40;;;7.10;;
75504;SDS011;64085;54.974;73.410;2023-05-03T21:16:42;10.52;;;7.93;;
75504;SDS011;64085;54.974;73.410;2023-05-03T21:19:27;12.70;;;7.97;;
75504;SDS011;64085;54.974;73.410;2023-05-03T21:22:11;11.45;;;6.85;;
75504;SDS011;64085;54.974;73.410;2023-05-03T21:24:37;10.43;;;7.82;;
75504;SDS011;64085;54.974;73.410;2023-05-03T21:27:03;12.95;;;7.43;;
75504;SDS011;64085;54.974;73.410;2023-05-03T21:29:28;10.55;;;7.53;;
75504;SDS011;64085;54.974;73.410;2023-05-03T21:31:54;9.25;;;6.63;;
75504;SDS011;64085;54.974;73.410;2023-05-03T21:34:20;13.82;;;7.50;;
75504;SDS011;64085;54.974;73.410;2023-05-03T21:36:45;10.55;;;8.15;;
75504;SDS011;64085;54.974;73.410;2023-05-03T21:41:55;10.13;;;7.45;;
75504;SDS011;64085;54.974;73.410;2023-05-03T21:44:20;13.63;;;7.43;;
75504;SDS011;64085;54.974;73.410;2023-05-03T21:46:46;10.63;;;5.88;;
75504;SDS011;64085;54.974;73.410;2023-05-03T21:49:12;14.18;;;7.95;;
75504;SDS011;64085;54.974;73.410;2023-05-03T21:51:39;12.68;;;7.88;;
75504;SDS011;64085;54.974;73.410;2023-05-03T21:54:04;14.00;;;8.25;;
75504;SDS011;64085;54.974;73.410;2023-05-03T21:56:30;13.05;;;8.43;;
75504;SDS011;64085;54.974;73.410;2023-05-03T21:59:14;13.88;;;7.78;;
75504;SDS011;64085;54.974;73.410;2023-05-03T22:01:58;11.20;;;8.50;;
75504;SDS011;64085;54.974;73.410;2023-05-03T22:04:25;12.45;;;7.65;;
75504;SDS011;64085;54.974;73.410;2023-05-03T22:07:09;12.23;;;8.13;;
75504;SDS011;64085;54.974;73.410;2023-05-03T22:09:35;11.75;;;7.18;;
75504;SDS011;64085;54.974;73.410;2023-05-03T22:17:29;11.60;;;7.53;;
75504;SDS011;64085;54.974;73.410;2023-05-03T22:22:39;11.80;;;7.47;;
75504;SDS011;64085;54.974;73.410;2023-05-03T22:28:08;13.30;;;7.78;;
75504;SDS011;64085;54.974;73.410;2023-05-03T22:30:34;13.15;;;7.93;;
75504;SDS011;64085;54.974;73.410;2023-05-03T22:32:59;12.13;;;7.32;;
75504;SDS011;64085;54.974;73.410;2023-05-03T22:35:25;14.63;;;8.45;;
75504;SDS011;64085;54.974;73.410;2023-05-03T22:40:53;14.05;;;7.22;;
75504;SDS011;64085;54.974;73.410;2023-05-03T22:43:19;11.38;;;7.65;;
75504;SDS011;64085;54.974;73.410;2023-05-03T22:45:45;12.60;;;7.65;;
75504;SDS011;64085;54.974;73.410;2023-05-03T22:48:11;11.82;;;7.40;;
75504;SDS011;64085;54.974;73.410;2023-05-03T22:50:37;12.95;;;7.40;;
75504;SDS011;64085;54.974;73.410;2023-05-03T22:53:02;14.50;;;8.02;;
75504;SDS011;64085;54.974;73.410;2023-05-03T22:55:28;14.60;;;8.35;;
75504;SDS011;64085;54.974;73.410;2023-05-03T22:58:12;12.38;;;7.95;;
75504;SDS011;64085;54.974;73.410;2023-05-03T23:00:56;12.88;;;6.97;;
75504;SDS011;64085;54.974;73.410;2023-05-03T23:03:22;12.18;;;7.35;;
75504;SDS011;64085;54.974;73.410;2023-05-03T23:05:50;13.32;;;7.45;;
75504;SDS011;64085;54.974;73.410;2023-05-03T23:08:16;14.65;;;7.72;;
75504;SDS011;64085;54.974;73.410;2023-05-03T23:10:41;10.93;;;7.68;;
75504;SDS011;64085;54.974;73.410;2023-05-03T23:13:25;14.38;;;8.13;;
75504;SDS011;64085;54.974;73.410;2023-05-03T23:18:35;10.73;;;7.50;;
75504;SDS011;64085;54.974;73.410;2023-05-03T23:21:01;10.25;;;6.50;;
75504;SDS011;64085;54.974;73.410;2023-05-03T23:23:28;10.98;;;6.70;;
75504;SDS011;64085;54.974;73.410;2023-05-03T23:25:54;13.07;;;7.53;;
75504;SDS011;64085;54.974;73.410;2023-05-03T23:28:38;11.25;;;6.63;;
75504;SDS011;64085;54.974;73.410;2023-05-03T23:31:22;13.65;;;7.18;;
75504;SDS011;64085;54.974;73.410;2023-05-03T23:33:47;10.70;;;6.82;;
75504;SDS011;64085;54.974;73.410;2023-05-03T23:36:13;11.70;;;6.93;;
75504;SDS011;64085;54.974;73.410;2023-05-03T23:38:39;10.15;;;6.50;;
75504;SDS011;64085;54.974;73.410;2023-05-03T23:41:05;11.13;;;7.07;;
75504;SDS011;64085;54.974;73.410;2023-05-03T23:43:31;15.23;;;7.55;;
75504;SDS011;64085;54.974;73.410;2023-05-03T23:49:00;7.28;;;5.70;;
75504;SDS011;64085;54.974;73.410;2023-05-03T23:54:29;13.30;;;7.35;;
75504;SDS011;64085;54.974;73.410;2023-05-03T23:57:13;11.18;;;7.15;;
75504;SDS011;64085;54.974;73.410;2023-05-03T23:59:56;10.57;;;7.50;;
